Time;durP1;ratioP1;P1;durP2;ratioP2;P2;SDS_P1;SDS_P2;PMS_P1;PMS_P2;Temp;Humidity;BMP_temperature;BMP_pressure;BME280_temperature;BME280_humidity;BME280_pressure;Samples;Min_cycle;Max_cycle;Signal;HPM_P1;HPM_P2
2022/04/11 00:00:27;;;;;;;14.25;10.07;;;;;;;8.16;88.99;99003.00;5061136;28;20040;-87
2022/04/11 00:02:53;;;;;;;10.70;9.38;;;;;;;8.09;89.97;99008.13;5062885;28;20028;-88
2022/04/11 00:05:18;;;;;;;16.10;9.82;;;;;;;8.05;90.06;98999.00;5045319;28;20036;-87
2022/04/11 00:07:44;;;;;;;15.23;10.10;;;;;;;8.11;89.86;99010.53;5080183;28;20056;-87
2022/04/11 00:10:09;;;;;;;15.43;9.90;;;;;;;7.98;90.17;98995.47;5064918;28;20054;-90
2022/04/11 00:12:37;;;;;;;14.52;10.90;;;;;;;7.87;90.65;98986.28;5050970;28;20070;-88
2022/04/11 00:15:07;;;;;;;12.18;9.68;;;;;;;7.97;90.75;98992.06;5048374;28;20032;-89
2022/04/11 00:17:35;;;;;;;13.00;9.20;;;;;;;7.99;91.34;98991.88;5045727;28;20048;-88
2022/04/11 00:20:01;;;;;;;12.55;9.82;;;;;;;8.04;90.92;99004.41;5047263;28;20037;-89
2022/04/11 00:22:27;;;;;;;13.63;10.00;;;;;;;8.10;90.47;99012.34;5065401;28;20032;-89
2022/04/11 00:24:52;;;;;;;12.43;9.73;;;;;;;7.97;91.46;98983.41;5056301;28;20032;-88
2022/04/11 00:27:19;;;;;;;14.20;9.88;;;;;;;8.05;92.26;98985.91;5048471;28;20036;-88
2022/04/11 00:29:45;;;;;;;13.57;10.35;;;;;;;8.08;92.86;98990.81;5065010;28;20475;-88
2022/04/11 00:32:11;;;;;;;12.02;9.50;;;;;;;8.02;93.21;98973.22;5068087;28;20024;-89
2022/04/11 00:34:37;;;;;;;14.30;9.55;;;;;;;7.91;91.88;98958.78;5050857;28;20032;-89
2022/04/11 00:37:02;;;;;;;10.60;9.23;;;;;;;7.93;92.69;98961.22;5065519;28;20084;-89
2022/04/11 00:39:28;;;;;;;15.43;10.32;;;;;;;7.89;93.40;98960.78;5065374;28;20025;-88
2022/04/11 00:41:54;;;;;;;13.00;9.20;;;;;;;7.95;93.46;98975.72;5048933;28;20115;-89
2022/04/11 00:44:21;;;;;;;12.88;9.80;;;;;;;7.72;93.78;98945.25;5066609;28;20060;-89
2022/04/11 00:46:47;;;;;;;16.25;10.27;;;;;;;7.89;94.48;98965.19;5049997;28;20067;-90
2022/04/11 00:49:12;;;;;;;13.40;10.50;;;;;;;7.95;94.12;98980.94;5051296;28;20055;-90
2022/04/11 00:51:39;;;;;;;12.40;10.30;;;;;;;7.84;94.55;98963.13;5055643;28;20051;-90
2022/04/11 00:56:59;;;;;;;15.68;11.05;;;;;;;7.93;95.36;98982.13;5067304;28;20058;-90
2022/04/11 00:59:25;;;;;;;11.55;10.35;;;;;;;7.86;95.46;98972.41;5051458;28;20044;-90
2022/04/11 01:01:51;;;;;;;14.90;11.40;;;;;;;7.80;95.94;98957.41;5053473;28;20052;-90
2022/04/11 01:04:23;;;;;;;11.88;10.27;;;;;;;7.82;96.22;98958.06;5050152;28;20029;-90
2022/04/11 01:06:58;;;;;;;12.85;10.35;;;;;;;7.75;96.46;98951.94;5033243;28;20086;-90
2022/04/11 01:09:24;;;;;;;16.67;10.85;;;;;;;7.98;96.79;98991.06;5049180;28;20029;-89
2022/04/11 01:11:53;;;;;;;12.82;10.23;;;;;;;7.93;97.22;98987.38;5048195;28;20025;-91
2022/04/11 01:14:19;;;;;;;11.82;9.50;;;;;;;7.85;97.43;98975.97;5054632;28;20044;-89
2022/04/11 01:16:50;;;;;;;13.63;9.95;;;;;;;7.83;97.76;98982.41;5053540;28;20029;-90
2022/04/11 01:19:16;;;;;;;13.05;9.68;;;;;;;7.66;98.44;98966.88;5069379;28;20032;-89
2022/04/11 01:21:45;;;;;;;15.45;10.07;;;;;;;7.63;99.01;98976.84;5055569;28;20059;-91
2022/04/11 01:24:12;;;;;;;12.18;9.10;;;;;;;7.40;99.71;98952.41;5070676;28;20055;-88
2022/04/11 01:26:38;;;;;;;12.00;9.68;;;;;;;7.38;99.59;98954.38;5053441;28;20058;-88
2022/04/11 01:29:04;;;;;;;11.93;9.40;;;;;;;7.43;99.96;98977.34;5071467;28;20040;-88
2022/04/11 01:31:31;;;;;;;17.50;9.50;;;;;;;7.20;100.00;98952.06;5054708;28;20040;-90
2022/04/11 01:33:57;;;;;;;11.88;9.38;;;;;;;7.21;100.00;98966.72;5056270;28;20024;-89
2022/04/11 01:36:22;;;;;;;11.57;9.20;;;;;;;7.05;100.00;98952.00;5057137;28;20032;-91
2022/04/11 01:38:48;;;;;;;12.77;9.60;;;;;;;7.20;100.00;98970.31;5057630;28;20044;-89
2022/04/11 01:41:14;;;;;;;13.63;10.10;;;;;;;7.23;100.00;98982.22;5056452;28;20036;-87
2022/04/11 01:43:39;;;;;;;12.10;9.73;;;;;;;7.20;100.00;98977.38;5053931;28;20036;-88
2022/04/11 01:46:05;;;;;;;12.15;10.00;;;;;;;7.03;100.00;98951.38;5068500;28;20047;-89
2022/04/11 01:48:31;;;;;;;16.02;10.07;;;;;;;7.12;100.00;98970.41;5065682;28;20471;-89
2022/04/11 01:50:56;;;;;;;14.07;9.35;;;;;;;7.00;100.00;98965.56;5066244;28;20028;-90
2022/04/11 01:53:22;;;;;;;13.32;8.93;;;;;;;6.72;100.00;98929.53;5050056;28;20079;-90
2022/04/11 01:55:48;;;;;;;13.77;9.93;;;;;;;6.67;100.00;98929.22;5053641;28;20548;-88
2022/04/11 01:58:15;;;;;;;14.30;10.27;;;;;;;6.87;100.00;98962.69;5055092;28;20032;-92
2022/04/11 02:00:42;;;;;;;12.20;9.30;;;;;;;6.80;100.00;98957.38;5075992;28;20047;-87
2022/04/11 02:03:09;;;;;;;18.35;10.00;;;;;;;6.81;100.00;98948.56;5065991;28;20021;-90
2022/04/11 02:05:35;;;;;;;10.75;9.65;;;;;;;6.71;100.00;98932.31;5066896;28;20044;-90
2022/04/11 02:08:00;;;;;;;14.57;9.55;;;;;;;6.67;100.00;98928.44;5066566;28;20016;-88
2022/04/11 02:10:27;;;;;;;13.00;9.07;;;;;;;6.55;100.00;98909.75;5060431;28;20029;-90
2022/04/11 02:12:53;;;;;;;9.98;8.55;;;;;;;6.63;100.00;98914.13;5077473;28;20050;-87
2022/04/11 02:15:19;;;;;;;12.43;9.30;;;;;;;6.66;100.00;98918.97;5060820;28;20054;-88
2022/04/11 02:17:50;;;;;;;9.57;8.50;;;;;;;6.72;100.00;98928.72;5057596;28;20028;-91
2022/04/11 02:20:16;;;;;;;13.60;9.48;;;;;;;6.59;100.00;98908.41;5056204;28;20044;-90
2022/04/11 02:22:45;;;;;;;12.82;9.13;;;;;;;6.88;100.00;98943.47;5067273;28;20035;-88
2022/04/11 02:25:12;;;;;;;11.98;8.77;;;;;;;6.67;100.00;98905.75;5050055;28;20029;-87
2022/04/11 02:27:38;;;;;;;13.88;8.63;;;;;;;6.88;100.00;98943.47;5050821;28;20029;-90
2022/04/11 02:30:05;;;;;;;14.18;9.65;;;;;;;6.85;100.00;98933.38;5083682;28;20096;-87
2022/04/11 02:32:33;;;;;;;11.05;8.60;;;;;;;6.96;100.00;98929.53;5048915;28;20482;-87
2022/04/11 02:34:58;;;;;;;10.02;8.95;;;;;;;6.78;100.00;98895.91;5067761;28;20037;-90
2022/04/11 02:37:24;;;;;;;9.93;8.52;;;;;;;6.88;100.00;98903.50;5070808;28;20017;-89
2022/04/11 02:39:51;;;;;;;10.38;8.43;;;;;;;6.93;100.00;98920.28;5087508;28;20548;-90
2022/04/11 02:42:26;;;;;;;10.55;8.13;;;;;;;6.90;100.00;98904.97;5069223;28;20036;-87
2022/04/11 02:44:52;;;;;;;11.15;8.07;;;;;;;6.90;100.00;98910.19;5051797;28;20032;-89
2022/04/11 02:47:19;;;;;;;13.18;9.07;;;;;;;6.98;100.00;98917.16;5052379;28;20035;-88
2022/04/11 02:49:45;;;;;;;15.20;9.10;;;;;;;6.88;100.00;98898.28;5069366;28;20032;-89
2022/04/11 02:52:11;;;;;;;11.18;8.90;;;;;;;6.95;100.00;98913.09;5065345;28;20059;-88
2022/04/11 02:54:38;;;;;;;11.68;8.63;;;;;;;6.94;100.00;98905.41;5049178;28;20056;-89
2022/04/11 02:57:03;;;;;;;12.55;9.00;;;;;;;6.93;100.00;98899.41;5046495;28;20024;-88
2022/04/11 02:59:29;;;;;;;11.75;8.68;;;;;;;6.89;100.00;98897.31;5065588;28;20040;-86
2022/04/11 03:01:56;;;;;;;10.18;8.00;;;;;;;6.96;100.00;98914.72;5065176;28;20060;-87
2022/04/11 03:04:22;;;;;;;9.98;7.63;;;;;;;6.77;100.00;98889.88;5048936;28;20501;-87
2022/04/11 03:06:48;;;;;;;11.30;7.90;;;;;;;6.89;100.00;98908.56;5047966;28;20111;-87
2022/04/11 03:09:14;;;;;;;8.60;7.78;;;;;;;6.69;100.00;98872.50;5080320;28;20032;-88
2022/04/11 03:11:40;;;;;;;12.93;8.10;;;;;;;6.75;100.00;98870.97;5064801;28;20036;-89
2022/04/11 03:14:06;;;;;;;9.75;8.13;;;;;;;6.76;100.00;98869.19;5065298;28;20398;-87
2022/04/11 03:16:31;;;;;;;9.88;7.32;;;;;;;6.81;100.00;98869.47;5064223;28;20032;-86
2022/04/11 03:18:57;;;;;;;10.18;8.40;;;;;;;6.98;100.00;98885.84;5064619;28;20041;-87
2022/04/11 03:21:23;;;;;;;9.48;7.90;;;;;;;6.92;100.00;98865.66;5046725;28;20036;-86
2022/04/11 03:23:49;;;;;;;10.55;8.10;;;;;;;6.95;100.00;98871.34;5063577;28;20052;-88
2022/04/11 03:26:14;;;;;;;13.63;8.52;;;;;;;6.96;100.00;98866.91;5063890;28;20052;-87
2022/04/11 03:28:40;;;;;;;10.50;7.97;;;;;;;6.90;100.00;98863.22;5063644;28;20031;-88
2022/04/11 03:31:06;;;;;;;11.38;8.95;;;;;;;6.76;100.00;98845.72;5064633;28;20024;-89
2022/04/11 03:33:32;;;;;;;11.45;8.35;;;;;;;6.89;100.00;98866.00;5047515;28;20037;-87
2022/04/11 03:35:57;;;;;;;9.57;8.60;;;;;;;6.71;100.00;98847.06;5056291;28;20119;-89
2022/04/11 03:38:23;;;;;;;9.35;7.72;;;;;;;6.71;100.00;98844.44;5064110;28;20035;-86
2022/04/11 03:40:49;;;;;;;12.25;8.43;;;;;;;6.70;100.00;98842.00;5065359;28;20024;-86
2022/04/11 03:43:15;;;;;;;14.15;8.57;;;;;;;6.78;100.00;98873.25;5064739;28;20086;-86
2022/04/11 03:45:41;;;;;;;14.27;8.65;;;;;;;6.66;100.00;98867.63;5065501;28;20474;-88
2022/04/11 03:48:07;;;;;;;13.15;8.55;;;;;;;6.56;100.00;98865.22;5082494;28;20082;-86
2022/04/11 03:50:32;;;;;;;8.77;7.82;;;;;;;6.45;100.00;98849.16;5064890;28;20494;-86
2022/04/11 03:52:58;;;;;;;12.20;8.43;;;;;;;6.46;100.00;98859.44;5064169;28;20057;-89
2022/04/11 03:55:24;;;;;;;16.08;9.00;;;;;;;6.13;100.00;98820.50;5062213;28;20078;-86
2022/04/11 03:57:50;;;;;;;12.60;8.75;;;;;;;6.16;100.00;98829.78;5062775;28;20050;-89
2022/04/11 04:00:19;;;;;;;11.77;7.45;;;;;;;6.12;100.00;98844.94;5046087;28;20028;-89
2022/04/11 04:02:45;;;;;;;10.13;7.65;;;;;;;6.10;100.00;98842.53;5062296;28;20028;-88
2022/04/11 04:05:10;;;;;;;10.63;8.25;;;;;;;6.21;100.00;98862.19;5062512;28;20024;-88
2022/04/11 04:07:36;;;;;;;11.68;8.75;;;;;;;5.96;100.00;98838.00;5063309;28;20032;-88
2022/04/11 04:10:06;;;;;;;11.82;7.97;;;;;;;6.00;100.00;98841.88;5045782;28;20032;-87
2022/04/11 04:12:39;;;;;;;10.18;8.18;;;;;;;5.94;100.00;98837.34;5066843;28;20056;-87
2022/04/11 04:15:05;;;;;;;13.02;8.02;;;;;;;5.97;100.00;98852.63;5065365;28;20033;-87
2022/04/11 04:17:36;;;;;;;11.68;7.93;;;;;;;5.92;100.00;98855.75;5046504;28;20028;-87
2022/04/11 04:20:06;;;;;;;12.40;8.00;;;;;;;5.89;100.00;98860.47;5061947;28;20494;-85
2022/04/11 04:22:32;;;;;;;16.65;9.73;;;;;;;5.45;100.00;98802.66;5045958;28;20115;-89
2022/04/11 04:24:57;;;;;;;10.93;7.65;;;;;;;5.75;100.00;98839.38;5080877;28;20142;-86
2022/04/11 04:27:23;;;;;;;11.73;7.40;;;;;;;5.47;100.00;98800.72;5079589;28;20123;-89
2022/04/11 04:29:48;;;;;;;13.95;7.18;;;;;;;5.57;100.00;98823.94;5062275;28;20028;-88
2022/04/11 04:32:14;;;;;;;14.60;7.65;;;;;;;5.53;100.00;98823.50;5051100;28;20037;-89
2022/04/11 04:34:41;;;;;;;15.52;8.18;;;;;;;5.43;100.00;98809.84;5068085;28;20028;-90
2022/04/11 04:37:06;;;;;;;15.60;8.27;;;;;;;5.47;100.00;98816.31;5053227;28;20536;-91
2022/04/11 04:39:32;;;;;;;13.80;8.23;;;;;;;5.45;100.00;98820.09;5054100;28;20032;-91
2022/04/11 04:41:58;;;;;;;14.32;7.85;;;;;;;5.57;100.00;98832.59;5068092;28;20074;-90
2022/04/11 04:44:24;;;;;;;12.48;7.45;;;;;;;5.56;100.00;98835.34;5051280;28;20029;-90
2022/04/11 04:46:49;;;;;;;11.38;7.88;;;;;;;5.38;100.00;98818.13;5081210;28;20059;-88
2022/04/11 04:49:15;;;;;;;11.45;7.38;;;;;;;5.21;100.00;98790.53;5053424;28;20108;-90
2022/04/11 04:51:41;;;;;;;12.13;7.68;;;;;;;5.39;100.00;98824.16;5068501;28;20053;-89
2022/04/11 04:54:07;;;;;;;12.02;7.45;;;;;;;5.16;100.00;98804.03;5067560;28;20123;-88
2022/04/11 04:56:32;;;;;;;9.55;6.97;;;;;;;5.20;100.00;98815.75;5053006;28;20021;-89
2022/04/11 04:58:58;;;;;;;11.88;7.70;;;;;;;5.08;100.00;98798.84;5085319;28;20032;-90
2022/04/11 05:01:23;;;;;;;15.40;7.35;;;;;;;5.14;100.00;98826.81;5049480;28;20509;-89
2022/04/11 05:03:50;;;;;;;11.93;6.78;;;;;;;5.24;100.00;98840.44;5049525;28;20093;-87
2022/04/11 05:06:15;;;;;;;11.43;7.80;;;;;;;5.02;100.00;98813.34;5065316;28;20031;-88
2022/04/11 05:08:41;;;;;;;12.70;7.07;;;;;;;5.22;100.00;98850.22;5065636;28;20036;-90
2022/04/11 05:11:07;;;;;;;13.82;7.88;;;;;;;5.02;100.00;98813.34;5081926;28;20037;-90
2022/04/11 05:13:32;;;;;;;10.68;6.75;;;;;;;5.02;100.00;98794.31;5065105;28;20470;-89
2022/04/11 05:15:58;;;;;;;11.23;7.05;;;;;;;5.15;100.00;98816.22;5047562;28;20532;-89
2022/04/11 05:18:24;;;;;;;9.82;6.93;;;;;;;5.38;100.00;98848.56;5064308;28;20036;-87
2022/04/11 05:20:51;;;;;;;10.93;7.20;;;;;;;5.41;100.00;98843.88;5081471;28;20025;-86
2022/04/11 05:23:18;;;;;;;12.05;7.95;;;;;;;5.26;100.00;98816.88;5097527;28;20082;-85
2022/04/11 05:25:44;;;;;;;9.82;7.18;;;;;;;5.27;100.00;98811.50;5068459;28;20047;-88
2022/04/11 05:28:10;;;;;;;12.20;7.93;;;;;;;5.31;100.00;98817.19;5053973;28;20111;-89
2022/04/11 05:30:36;;;;;;;15.82;8.82;;;;;;;5.24;100.00;98809.22;5054240;28;20039;-89
2022/04/11 05:33:02;;;;;;;14.07;8.18;;;;;;;5.37;100.00;98826.94;5051613;28;20095;-88
2022/04/11 05:35:28;;;;;;;15.20;8.13;;;;;;;5.18;100.00;98790.84;5083986;28;20036;-90
2022/04/11 05:37:54;;;;;;;12.98;7.57;;;;;;;5.19;100.00;98798.50;5047384;28;20043;-87
2022/04/11 05:40:20;;;;;;;14.95;7.55;;;;;;;5.12;100.00;98785.34;5067484;28;20024;-90
2022/04/11 05:42:45;;;;;;;11.68;7.63;;;;;;;5.15;100.00;98781.59;5051837;28;20039;-89
2022/04/11 05:45:12;;;;;;;14.93;8.40;;;;;;;5.20;100.00;98781.91;5050749;28;20025;-88
2022/04/11 05:47:37;;;;;;;15.98;8.73;;;;;;;5.26;100.00;98788.25;5086978;28;20025;-90
2022/04/11 05:50:03;;;;;;;11.00;7.90;;;;;;;5.21;100.00;98774.91;5069179;28;20036;-89
2022/04/11 05:52:29;;;;;;;16.27;8.50;;;;;;;5.48;100.00;98806.75;5069819;28;20028;-89
2022/04/11 05:54:55;;;;;;;15.57;10.20;;;;;;;5.51;100.00;98802.03;5089150;28;20062;-88
2022/04/11 05:57:20;;;;;;;14.52;8.60;;;;;;;5.29;100.00;98767.91;5050963;28;20150;-89
2022/04/11 05:59:46;;;;;;;15.18;9.07;;;;;;;5.43;100.00;98778.59;5067089;28;20036;-89
2022/04/11 06:02:11;;;;;;;15.25;8.40;;;;;;;5.62;100.00;98807.84;5054486;28;20036;-89
2022/04/11 06:04:37;;;;;;;12.75;7.47;;;;;;;5.62;100.00;98813.88;5086746;28;20053;-89
2022/04/11 06:07:04;;;;;;;15.00;8.13;;;;;;;5.40;100.00;98779.75;5054808;28;20040;-90
2022/04/11 06:09:31;;;;;;;14.75;7.97;;;;;;;5.59;100.00;98808.97;5058535;28;20056;-87
2022/04/11 06:11:58;;;;;;;15.95;8.45;;;;;;;5.46;100.00;98788.66;5064070;28;20036;-91
2022/04/11 06:14:24;;;;;;;16.65;8.65;;;;;;;5.48;100.00;98801.53;5073322;28;20031;-89
2022/04/11 06:16:50;;;;;;;14.25;8.75;;;;;;;5.48;100.00;98801.53;5057740;28;20028;-90
2022/04/11 06:19:17;;;;;;;19.75;8.75;;;;;;;5.62;100.00;98802.63;5074069;28;20032;-89
2022/04/11 06:21:43;;;;;;;18.77;9.30;;;;;;;5.49;100.00;98767.50;5089900;28;20103;-85
2022/04/11 06:24:09;;;;;;;16.77;9.50;;;;;;;5.55;100.00;98761.66;5047430;28;20085;-88
2022/04/11 06:26:34;;;;;;;17.77;9.85;;;;;;;5.51;100.00;98744.75;5046097;28;20036;-88
2022/04/11 06:29:00;;;;;;;20.73;8.45;;;;;;;5.75;100.00;98766.44;5049487;28;20119;-88
2022/04/11 06:31:25;;;;;;;18.02;10.43;;;;;;;5.73;100.00;98750.19;5046908;28;21878;-88
2022/04/11 06:33:51;;;;;;;20.02;10.43;;;;;;;6.23;100.00;98795.06;5045313;28;20032;-86
2022/04/11 06:36:17;;;;;;;17.08;10.30;;;;;;;6.13;100.00;98750.16;5042340;28;20025;-84
2022/04/11 06:38:42;;;;;;;18.90;9.75;;;;;;;6.13;100.00;98731.91;5075060;28;20082;-84
2022/04/11 06:41:08;;;;;;;15.88;10.70;;;;;;;6.35;100.00;98756.38;5050133;28;20048;-84
2022/04/11 06:43:33;;;;;;;21.60;11.50;;;;;;;6.33;100.00;98747.91;5073122;28;20433;-84
2022/04/11 06:46:03;;;;;;;23.60;11.95;;;;;;;6.57;100.00;98774.78;5056840;28;20024;-83
2022/04/11 06:48:30;;;;;;;21.02;10.82;;;;;;;6.67;100.00;98770.13;5045193;28;20036;-82
2022/04/11 06:50:56;;;;;;;23.20;12.13;;;;;;;6.65;100.00;98763.47;5059157;28;20027;-82
2022/04/11 06:53:21;;;;;;;17.55;10.45;;;;;;;6.65;100.00;98751.22;5080127;28;20041;-87
2022/04/11 06:55:48;;;;;;;21.40;11.52;;;;;;;6.68;100.00;98753.50;5044970;28;20028;-84
2022/04/11 06:58:17;;;;;;;23.75;12.10;;;;;;;6.68;100.00;98766.56;5044738;28;20058;-87
2022/04/11 07:00:44;;;;;;;19.08;12.07;;;;;;;6.98;100.00;98769.22;5055754;28;20463;-87
2022/04/11 07:03:09;;;;;;;18.77;12.25;;;;;;;7.00;100.00;98759.41;5075119;28;20052;-87
2022/04/11 07:05:38;;;;;;;21.05;12.30;;;;;;;8.35;100.00;98741.88;5056710;28;20438;-86
2022/04/11 07:08:05;;;;;;;22.83;12.88;;;;;;;8.52;100.00;98745.91;5075573;28;20028;-85
2022/04/11 07:10:34;;;;;;;21.40;13.82;;;;;;;8.55;100.00;98732.47;5056552;28;20028;-84
2022/04/11 07:12:59;;;;;;;20.15;12.85;;;;;;;8.93;100.00;98773.22;5055054;28;20032;-83
2022/04/11 07:15:25;;;;;;;23.60;13.50;;;;;;;8.92;100.00;98760.31;5057144;28;20360;-85
2022/04/11 07:17:51;;;;;;;24.35;14.05;;;;;;;8.85;100.00;98737.50;5075145;28;20085;-85
2022/04/11 07:20:18;;;;;;;23.77;13.65;;;;;;;8.82;100.00;98755.41;5039436;28;20470;-87
2022/04/11 07:22:44;;;;;;;25.42;13.55;;;;;;;8.80;100.00;98731.22;5074249;28;20024;-87
2022/04/11 07:25:10;;;;;;;24.77;14.55;;;;;;;8.68;100.00;98712.63;5040065;28;20035;-87
2022/04/11 07:27:36;;;;;;;28.27;15.15;;;;;;;9.04;100.00;98760.59;5055883;28;20456;-88
2022/04/11 07:30:05;;;;;;;24.65;13.77;;;;;;;9.00;100.00;98768.81;5055570;28;20098;-86
2022/04/11 07:32:31;;;;;;;28.48;14.98;;;;;;;8.69;100.00;98741.22;5075021;28;20413;-87
2022/04/11 07:34:58;;;;;;;23.60;15.00;;;;;;;8.77;100.00;98737.66;5075781;28;20086;-86
2022/04/11 07:37:25;;;;;;;25.35;15.52;;;;;;;8.84;100.00;98738.50;5075676;28;20024;-87
2022/04/11 07:39:52;;;;;;;29.45;16.58;;;;;;;8.73;100.00;98740.84;5057952;28;20412;-88
2022/04/11 07:42:19;;;;;;;29.17;17.77;;;;;;;8.81;100.00;98738.06;5045324;28;20028;-84
2022/04/11 07:44:45;;;;;;;31.88;17.70;;;;;;;8.70;100.00;98735.00;5043401;28;20621;-85
2022/04/11 07:47:11;;;;;;;32.60;17.92;;;;;;;8.76;100.00;98730.00;5057796;28;20115;-85
2022/04/11 07:49:36;;;;;;;31.85;18.75;;;;;;;8.75;100.00;98718.72;5060524;28;20161;-88
2022/04/11 07:52:02;;;;;;;28.30;18.08;;;;;;;8.97;100.00;98742.22;5042739;28;20032;-86
2022/04/11 07:54:28;;;;;;;31.58;18.00;;;;;;;8.77;100.00;98700.22;5043289;28;20109;-88
2022/04/11 07:56:54;;;;;;;28.35;17.85;;;;;;;8.99;100.00;98724.53;5058630;28;20017;-86
2022/04/11 07:59:21;;;;;;;28.05;17.77;;;;;;;8.95;100.00;98692.69;5075610;28;20414;-83
2022/04/11 08:01:47;;;;;;;29.45;17.10;;;;;;;8.99;100.00;98707.00;5053575;28;20032;-83
2022/04/11 08:04:12;;;;;;;29.77;18.17;;;;;;;9.15;100.00;98728.63;5055657;28;20138;-82
2022/04/11 08:06:38;;;;;;;29.05;17.15;;;;;;;9.49;100.00;98734.03;5055159;28;20025;-82
2022/04/11 08:09:04;;;;;;;29.98;16.85;;;;;;;9.62;100.00;98728.03;5074000;28;20382;-83
2022/04/11 08:11:30;;;;;;;28.95;17.10;;;;;;;9.75;100.00;98725.47;5055188;28;20449;-85
2022/04/11 08:13:56;;;;;;;33.08;17.38;;;;;;;9.77;100.00;98705.13;5055539;28;20028;-83
2022/04/11 08:16:22;;;;;;;28.17;15.88;;;;;;;10.23;100.00;98742.94;5071302;28;20025;-82
2022/04/11 08:18:48;;;;;;;28.27;16.63;;;;;;;9.90;100.00;98703.53;5071879;28;20426;-83
2022/04/11 08:21:13;;;;;;;26.90;16.75;;;;;;;9.98;100.00;98711.22;5072368;28;20048;-85
2022/04/11 08:23:39;;;;;;;27.95;16.25;;;;;;;10.22;100.00;98701.97;5055272;28;20031;-85
2022/04/11 08:26:05;;;;;;;23.13;15.80;;;;;;;10.47;100.00;98687.50;5058357;28;20025;-84
2022/04/11 08:28:30;;;;;;;29.90;16.90;;;;;;;10.81;100.00;98709.28;5040452;28;20035;-82
2022/04/11 08:30:56;;;;;;;22.17;15.93;;;;;;;11.02;100.00;98702.97;5054676;28;20052;-83
2022/04/11 08:33:22;;;;;;;22.52;15.93;;;;;;;10.94;100.00;98693.50;5072472;28;20105;-82
2022/04/11 08:35:48;;;;;;;27.83;16.85;;;;;;;11.53;100.00;98695.34;5054470;28;20029;-82
2022/04/11 08:38:13;;;;;;;22.65;15.88;;;;;;;12.09;99.70;98711.47;5037535;28;20059;-83
2022/04/11 08:40:39;;;;;;;24.13;16.52;;;;;;;12.65;97.09;98722.97;5073122;28;20390;-82
2022/04/11 08:43:05;;;;;;;32.00;16.90;;;;;;;12.63;95.97;98713.66;5054531;28;20383;-83
2022/04/11 08:45:31;;;;;;;41.75;18.65;;;;;;;12.71;93.56;98690.50;5052960;28;20028;-83
2022/04/11 08:47:57;;;;;;;24.10;16.27;;;;;;;12.74;93.29;98709.53;5072508;28;20032;-83
2022/04/11 08:50:24;;;;;;;41.08;18.77;;;;;;;12.98;93.62;98708.72;5054771;28;20509;-82
2022/04/11 08:52:51;;;;;;;20.70;15.40;;;;;;;13.16;92.17;98699.16;5053451;28;20063;-82
2022/04/11 08:55:18;;;;;;;39.85;17.00;;;;;;;13.18;92.17;98694.50;5073503;28;20086;-83
2022/04/11 08:57:43;;;;;;;20.45;15.15;;;;;;;13.09;92.95;98701.91;5052465;28;20024;-84
2022/04/11 09:00:11;;;;;;;33.95;16.33;;;;;;;13.12;91.34;98716.44;5069961;28;20095;-83
2022/04/11 09:02:39;;;;;;;27.77;16.65;;;;;;;13.32;90.45;98705.69;5052482;28;20063;-83
2022/04/11 09:05:06;;;;;;;40.80;17.42;;;;;;;13.65;90.31;98679.97;5052377;28;20039;-83
2022/04/11 09:07:50;;;;;;;21.48;15.18;;;;;;;13.78;88.84;98693.00;5069978;28;21494;-82
2022/04/11 09:10:35;;;;;;;33.38;16.05;;;;;;;13.52;89.25;98694.16;5068939;28;20041;-84
2022/04/11 09:13:04;;;;;;;17.90;14.90;;;;;;;13.80;87.52;98690.94;5041793;28;20025;-83
2022/04/11 09:15:39;;;;;;;17.27;13.18;;;;;;;13.43;86.96;98691.00;5036861;28;20482;-83
2022/04/11 09:18:05;;;;;;;19.73;13.65;;;;;;;13.66;87.86;98694.78;5036240;28;20036;-85
2022/04/11 09:20:30;;;;;;;19.25;13.65;;;;;;;13.21;86.89;98673.00;5053847;28;20036;-81
2022/04/11 09:22:58;;;;;;;18.58;14.60;;;;;;;13.50;87.09;98675.91;5036843;28;20033;-80
2022/04/11 09:25:28;;;;;;;16.75;12.48;;;;;;;14.08;86.79;98692.16;5052622;28;20375;-83
2022/04/11 09:28:12;;;;;;;21.10;13.98;;;;;;;14.01;85.90;98680.91;5070386;28;20119;-83
2022/04/11 09:30:39;;;;;;;;;;;;;;;13.63;85.43;98680.19;5036899;28;20056;-82
2022/04/11 09:33:07;;;;;;;15.30;13.13;;;;;;;14.04;83.81;98659.34;5053729;28;19912;-83
2022/04/11 09:35:38;;;;;;;17.55;14.00;;;;;;;14.01;83.12;98649.25;5074291;28;20035;-83
2022/04/11 09:38:14;;;;;;;15.73;12.45;;;;;;;13.68;83.92;98650.50;5056133;28;21077;-83
2022/04/11 09:40:44;;;;;;;15.85;12.57;;;;;;;13.73;84.02;98650.63;5055821;28;20474;-83
2022/04/11 09:43:11;;;;;;;18.58;13.82;;;;;;;14.10;83.29;98642.59;5056692;28;20110;-86
2022/04/11 09:45:56;;;;;;;16.88;12.35;;;;;;;14.38;83.92;98638.50;5047581;28;20090;-83
2022/04/11 09:48:30;;;;;;;15.60;13.38;;;;;;;14.38;82.69;98649.06;5057108;28;20028;-82
2022/04/11 09:50:59;;;;;;;14.15;12.63;;;;;;;14.69;82.66;98638.38;5074393;28;20036;-81
2022/04/11 09:53:33;;;;;;;22.90;13.57;;;;;;;14.62;82.09;98627.91;5056569;28;20048;-84
2022/04/11 09:56:03;;;;;;;17.75;13.55;;;;;;;14.40;81.10;98630.31;5073098;28;20592;-83
2022/04/11 09:58:30;;;;;;;17.10;12.65;;;;;;;14.74;81.33;98616.56;5072710;28;20029;-83
2022/04/11 10:00:58;;;;;;;20.20;12.93;;;;;;;14.65;80.72;98619.53;5073386;28;20036;-82
2022/04/11 10:03:24;;;;;;;14.95;12.13;;;;;;;14.47;78.99;98622.28;5074280;28;20445;-83
2022/04/11 10:05:50;;;;;;;22.30;13.57;;;;;;;14.38;79.72;98606.81;5074139;28;20478;-82
2022/04/11 10:08:18;;;;;;;16.90;12.18;;;;;;;14.53;78.93;98602.88;5073146;28;20035;-81
2022/04/11 10:10:43;;;;;;;13.68;12.27;;;;;;;14.80;78.09;98607.72;5053541;28;20025;-83
2022/04/11 10:13:12;;;;;;;16.95;12.35;;;;;;;14.79;79.41;98621.97;5054944;28;20031;-82
2022/04/11 10:15:40;;;;;;;16.17;13.38;;;;;;;14.94;78.08;98619.63;5038666;28;20033;-82
2022/04/11 10:18:07;;;;;;;14.15;12.30;;;;;;;15.42;78.35;98619.47;5071812;28;20043;-82
2022/04/11 10:20:39;;;;;;;15.43;12.57;;;;;;;15.59;77.38;98602.84;5073550;28;20063;-83
2022/04/11 10:23:28;;;;;;;22.98;13.20;;;;;;;15.13;77.62;98599.13;5054555;28;20024;-83
2022/04/11 10:25:57;;;;;;;23.23;13.27;;;;;;;15.31;77.32;98592.03;5073350;28;20376;-83
2022/04/11 10:28:25;;;;;;;15.52;13.00;;;;;;;15.28;76.97;98597.81;5075099;28;20029;-85
2022/04/11 10:31:10;;;;;;;16.50;12.98;;;;;;;15.35;77.16;98608.25;5040398;28;20040;-84
2022/04/11 10:33:42;;;;;;;25.73;13.95;;;;;;;15.38;78.40;98587.41;5074371;28;20056;-85
2022/04/11 10:36:35;;;;;;;19.38;13.65;;;;;;;14.89;78.12;98598.38;5056342;28;20104;-86
2022/04/11 10:39:13;;;;;;;17.58;13.45;;;;;;;14.59;78.14;98596.69;5055770;28;20024;-86
2022/04/11 10:41:56;;;;;;;18.60;14.50;;;;;;;14.60;78.88;98579.81;5055804;28;20116;-85
2022/04/11 10:44:39;;;;;;;18.45;14.00;;;;;;;14.78;79.96;98581.50;5038354;28;20024;-83
2022/04/11 10:47:08;;;;;;;22.10;13.68;;;;;;;14.92;78.68;98574.13;5052540;28;20497;-85
2022/04/11 10:49:49;;;;;;;18.05;13.57;;;;;;;14.58;79.21;98576.59;5055982;28;20036;-85
2022/04/11 10:52:27;;;;;;;18.63;13.13;;;;;;;14.69;79.74;98567.84;5057011;28;20063;-85
2022/04/11 10:55:03;;;;;;;17.70;13.40;;;;;;;14.59;79.90;98567.63;5074138;28;20033;-85
2022/04/11 10:57:37;;;;;;;19.48;14.63;;;;;;;14.59;78.56;98566.81;5056383;28;20035;-85
2022/04/11 11:00:22;;;;;;;16.50;12.93;;;;;;;14.52;79.94;98544.00;5055470;28;20036;-85
2022/04/11 11:02:48;;;;;;;15.13;13.18;;;;;;;14.57;80.01;98552.00;5072762;28;20032;-86
2022/04/11 11:05:38;;;;;;;17.23;12.60;;;;;;;14.65;79.37;98564.06;5055153;28;20086;-86
2022/04/11 11:08:09;;;;;;;15.93;12.80;;;;;;;14.98;80.03;98567.09;5055699;28;20033;-85
2022/04/11 11:10:45;;;;;;;16.98;12.70;;;;;;;14.78;79.18;98573.59;5055864;28;20044;-85
2022/04/11 11:13:39;;;;;;;22.77;14.02;;;;;;;14.91;78.90;98567.22;5038023;28;20093;-84
2022/04/11 11:16:07;;;;;;;15.30;13.60;;;;;;;15.30;77.94;98564.00;5039157;28;20524;-85
2022/04/11 11:18:46;;;;;;;15.02;12.48;;;;;;;15.49;77.03;98555.84;5039243;28;20068;-85
2022/04/11 11:21:37;;;;;;;14.13;12.70;;;;;;;15.36;75.51;98547.19;5072739;28;20020;-83
2022/04/11 11:24:12;;;;;;;15.35;12.30;;;;;;;15.81;76.18;98537.59;5019343;28;20453;-85
2022/04/11 11:26:40;;;;;;;16.63;12.32;;;;;;;15.59;75.23;98545.44;5072906;28;20028;-83